Peell, Washington
Current Conditions -  °F | °C
As of 9:35 PM on Friday 31 Oct 2014 (Local Time) from KCLS Reporting Station
Haze Haze  
Wind Chill: 46°   Ceiling: NA
Heat Index: 46°   Visibility: 2.5mi
Dew Point: 46°   Wind: 0mph
Humidity: 100%   Direction: NA
Pressure: 29.87"   Gusts: NA
Location:  46.4795°N, 123.258°W
Report Text: KCLS 010435Z AUTO 00000KT 2 1/2SM BR 08/08 A2987 RMK AO2
Loading
Personal Weather Stations






























Interactive Weather Map
Tropical Storm Tracking
New forecast layout! Learn more

10-Day Weather Forecast

Advertisements
Track Severe Weather on mobile